createdAt,value
2023-02-14T00:01:41.990Z,35.93
2023-02-14T00:04:11.887Z,37.73
2023-02-14T00:06:40.931Z,31.60
2023-02-14T00:09:11.768Z,34.07
2023-02-14T00:11:41.109Z,36.40
2023-02-14T00:14:27.334Z,38.37
2023-02-14T00:16:55.740Z,37.07
2023-02-14T00:19:25.554Z,39.27
2023-02-14T00:21:53.953Z,34.73
2023-02-14T00:24:25.052Z,36.43
2023-02-14T00:26:54.057Z,38.50
2023-02-14T00:29:24.204Z,36.37
2023-02-14T00:31:52.655Z,34.90
2023-02-14T00:34:21.779Z,41.40
2023-02-14T00:36:51.560Z,40.03
2023-02-14T00:39:20.991Z,36.63
2023-02-14T00:41:49.393Z,35.00
2023-02-14T00:44:18.409Z,33.67
2023-02-14T00:46:46.881Z,36.23
2023-02-14T00:49:15.132Z,35.90
2023-02-14T00:51:43.327Z,41.27
2023-02-14T00:54:12.876Z,41.30
2023-02-14T00:56:41.050Z,34.07
2023-02-14T00:59:10.785Z,35.63
2023-02-14T01:01:38.973Z,46.73
2023-02-14T01:04:07.709Z,34.07
2023-02-14T01:06:36.312Z,31.77
2023-02-14T01:09:05.474Z,33.80
2023-02-14T01:11:36.014Z,34.93
2023-02-14T01:14:04.563Z,42.77
2023-02-14T01:16:32.859Z,35.90
2023-02-14T01:19:01.984Z,39.77
2023-02-14T01:21:33.531Z,32.70
2023-02-14T01:24:03.762Z,34.53
2023-02-14T01:26:32.391Z,33.40
2023-02-14T01:29:04.894Z,35.90
2023-02-14T01:31:34.821Z,39.13
2023-02-14T01:34:03.589Z,40.93
2023-02-14T01:36:34.116Z,36.73
2023-02-14T01:39:05.505Z,33.17
2023-02-14T01:41:36.028Z,36.10
2023-02-14T01:44:08.594Z,36.60
2023-02-14T01:46:38.872Z,33.83
2023-02-14T01:49:10.733Z,33.03
2023-02-14T01:51:45.792Z,33.23
2023-02-14T01:54:14.937Z,36.20
2023-02-14T01:56:50.822Z,36.67
2023-02-14T01:59:23.168Z,38.60
2023-02-14T02:01:53.346Z,34.70
2023-02-14T02:04:26.999Z,34.70
2023-02-14T02:07:02.655Z,31.27
2023-02-14T02:09:35.184Z,33.50
2023-02-14T02:12:03.924Z,36.30
2023-02-14T02:14:34.068Z,39.27
2023-02-14T02:17:24.317Z,41.23
2023-02-14T02:20:19.361Z,34.97
2023-02-14T02:23:31.235Z,35.07
2023-02-14T02:26:29.656Z,37.13
2023-02-14T02:29:32.888Z,30.13
2023-02-14T02:32:32.744Z,40.67
2023-02-14T02:35:19.088Z,31.50
2023-02-14T02:38:01.748Z,29.33
2023-02-14T02:40:41.022Z,33.53
2023-02-14T02:43:22.339Z,41.73
2023-02-14T02:46:17.739Z,28.37
2023-02-14T02:48:56.089Z,29.53
2023-02-14T02:51:51.970Z,28.97
2023-02-14T02:54:28.211Z,28.27
2023-02-14T02:57:01.290Z,28.97
2023-02-14T02:59:32.060Z,27.67
2023-02-14T03:02:06.377Z,29.27
2023-02-14T03:05:03.383Z,28.37
2023-02-14T03:07:36.615Z,27.60
2023-02-14T03:10:14.520Z,27.93
2023-02-14T03:13:24.806Z,28.43
2023-02-14T03:16:23.076Z,30.67
2023-02-14T03:19:21.433Z,27.93
2023-02-14T03:21:55.787Z,28.43
2023-02-14T03:24:31.204Z,27.80
2023-02-14T03:27:07.107Z,26.03
2023-02-14T03:29:46.262Z,27.50
2023-02-14T03:32:21.470Z,27.20
2023-02-14T03:34:58.755Z,27.57
2023-02-14T03:37:33.483Z,27.23
2023-02-14T03:40:10.471Z,27.47
2023-02-14T03:42:44.805Z,28.20
2023-02-14T03:45:19.150Z,27.67
2023-02-14T03:47:49.608Z,30.40
2023-02-14T03:50:20.190Z,28.67
2023-02-14T03:52:52.933Z,28.13
2023-02-14T03:55:29.135Z,26.63
2023-02-14T03:58:04.205Z,25.47
2023-02-14T04:00:37.989Z,31.60
2023-02-14T04:03:13.027Z,26.63
2023-02-14T04:05:44.331Z,26.33
2023-02-14T04:08:12.825Z,27.03
2023-02-14T04:10:45.250Z,26.17
2023-02-14T04:13:13.462Z,24.90
2023-02-14T04:15:41.714Z,28.20
2023-02-14T04:18:28.283Z,27.07
2023-02-14T04:20:56.470Z,31.60
2023-02-14T04:23:24.756Z,25.47
2023-02-14T04:25:54.325Z,26.60
2023-02-14T04:28:22.682Z,25.03
2023-02-14T04:30:50.987Z,25.03
2023-02-14T04:33:19.310Z,30.73
2023-02-14T04:35:47.486Z,26.10
2023-02-14T04:38:16.034Z,27.47
2023-02-14T04:40:44.412Z,26.87
2023-02-14T04:43:14.088Z,25.13
2023-02-14T04:45:42.280Z,23.57
2023-02-14T04:48:10.465Z,26.73
2023-02-14T04:50:38.890Z,22.97
2023-02-14T04:53:07.278Z,24.27
2023-02-14T04:55:35.755Z,24.17
2023-02-14T04:58:05.139Z,23.23
2023-02-14T05:00:35.014Z,23.80
2023-02-14T05:03:03.243Z,23.67
2023-02-14T05:05:31.424Z,22.97
2023-02-14T05:07:59.712Z,23.10
2023-02-14T05:10:29.364Z,21.60
2023-02-14T05:12:57.612Z,23.17
2023-02-14T05:15:25.773Z,22.67
2023-02-14T05:17:55.351Z,22.23
2023-02-14T05:20:23.538Z,21.10
2023-02-14T05:22:51.798Z,20.67
2023-02-14T05:25:20.329Z,21.00
2023-02-14T05:27:48.501Z,20.77
2023-02-14T05:30:17.284Z,25.97
2023-02-14T05:32:45.629Z,19.93
2023-02-14T05:35:15.162Z,20.17
2023-02-14T05:37:43.358Z,20.30
2023-02-14T05:40:13.509Z,19.97
2023-02-14T05:42:41.692Z,26.07
2023-02-14T05:45:11.803Z,20.77
2023-02-14T05:47:40.407Z,19.90
2023-02-14T05:50:09.505Z,18.13
2023-02-14T05:52:39.461Z,19.90
2023-02-14T05:55:08.623Z,23.07
2023-02-14T05:57:37.276Z,21.47
2023-02-14T06:00:07.136Z,19.47
2023-02-14T06:02:41.603Z,18.77
2023-02-14T06:05:10.232Z,19.53
2023-02-14T06:07:39.852Z,19.47
2023-02-14T06:10:09.986Z,24.37
2023-02-14T06:12:38.277Z,20.17
2023-02-14T06:15:07.337Z,19.40
2023-02-14T06:17:35.571Z,20.63
2023-02-14T06:20:03.746Z,17.63
2023-02-14T06:22:32.034Z,17.63
2023-02-14T06:25:01.513Z,17.63
2023-02-14T06:27:30.375Z,18.50
2023-02-14T06:29:58.902Z,18.30
2023-02-14T06:32:27.488Z,18.70
2023-02-14T06:34:55.791Z,17.63
2023-02-14T06:37:24.353Z,18.27
2023-02-14T06:39:52.544Z,17.77
2023-02-14T06:42:22.195Z,18.10
2023-02-14T06:44:50.367Z,18.40
2023-02-14T06:47:18.698Z,17.63
2023-02-14T06:49:46.896Z,17.07
2023-02-14T06:52:15.142Z,16.57
2023-02-14T06:54:43.355Z,17.37
2023-02-14T06:57:11.515Z,20.00
2023-02-14T06:59:41.043Z,16.30
2023-02-14T07:02:11.615Z,16.43
2023-02-14T07:04:40.140Z,16.33
2023-02-14T07:07:08.325Z,22.67
2023-02-14T07:09:36.534Z,18.20
2023-02-14T07:12:05.044Z,17.43
2023-02-14T07:14:33.249Z,17.30
2023-02-14T07:17:02.762Z,16.50
2023-02-14T07:19:30.943Z,19.20
2023-02-14T07:21:59.170Z,16.40
2023-02-14T07:24:27.506Z,16.20
2023-02-14T07:26:55.691Z,26.10
2023-02-14T07:29:23.983Z,17.10
2023-02-14T07:31:52.338Z,18.17
2023-02-14T07:34:21.974Z,17.10
2023-02-14T07:36:50.097Z,17.30
2023-02-14T07:39:18.354Z,31.10
2023-02-14T07:41:46.611Z,17.20
2023-02-14T07:44:18.035Z,15.30
2023-02-14T07:46:46.525Z,16.40
2023-02-14T07:49:14.776Z,20.63
2023-02-14T07:51:44.737Z,19.60
2023-02-14T07:54:12.945Z,19.47
2023-02-14T07:56:41.206Z,18.23
2023-02-14T07:59:09.347Z,17.13
2023-02-14T08:01:37.616Z,17.83
2023-02-14T08:04:06.182Z,16.40
2023-02-14T08:06:34.623Z,15.83
2023-02-14T08:09:04.282Z,16.97
2023-02-14T08:11:49.940Z,16.43
2023-02-14T08:14:18.294Z,16.00
2023-02-14T08:16:46.593Z,16.27
2023-02-14T08:19:15.006Z,16.67
2023-02-14T08:21:43.468Z,15.47
2023-02-14T08:24:13.094Z,15.00
2023-02-14T08:26:41.315Z,16.90
2023-02-14T08:29:09.657Z,15.27
2023-02-14T08:31:38.488Z,15.77
2023-02-14T08:34:07.558Z,16.20
2023-02-14T08:36:36.139Z,15.80
2023-02-14T08:39:05.332Z,16.27
2023-02-14T08:41:35.764Z,15.63
2023-02-14T08:44:04.426Z,16.50
2023-02-14T08:46:32.944Z,17.27
2023-02-14T08:49:01.479Z,14.87
2023-02-14T08:51:29.987Z,17.60
2023-02-14T08:53:58.277Z,19.53
2023-02-14T08:56:26.749Z,16.63
2023-02-14T08:58:56.563Z,15.53
2023-02-14T09:01:24.998Z,15.57
2023-02-14T09:03:53.768Z,15.53
2023-02-14T09:06:22.327Z,15.97
2023-02-14T09:08:51.834Z,15.77
2023-02-14T09:11:22.823Z,15.87
2023-02-14T09:13:53.382Z,16.33
2023-02-14T09:16:24.348Z,15.23
2023-02-14T09:18:54.705Z,15.70
2023-02-14T09:21:25.873Z,15.17
2023-02-14T09:23:54.447Z,15.17
2023-02-14T09:26:23.149Z,15.27
2023-02-14T09:28:51.629Z,14.90
2023-02-14T09:31:23.990Z,15.20
2023-02-14T09:33:53.200Z,15.53
2023-02-14T09:36:21.403Z,15.40
2023-02-14T09:38:49.695Z,15.07
2023-02-14T09:41:42.342Z,14.20
2023-02-14T09:44:22.549Z,14.20
2023-02-14T09:46:55.847Z,14.40
2023-02-14T09:49:31.672Z,15.37
2023-02-14T09:52:02.816Z,14.80
2023-02-14T09:54:33.393Z,15.73
2023-02-14T09:57:07.047Z,15.47
2023-02-14T09:59:40.888Z,15.83
2023-02-14T10:02:26.502Z,17.13
2023-02-14T10:05:02.895Z,17.33
2023-02-14T10:07:37.946Z,17.60
2023-02-14T10:10:14.377Z,19.50
2023-02-14T10:12:47.258Z,16.97
2023-02-14T10:15:19.578Z,18.90
2023-02-14T10:17:53.579Z,17.50
2023-02-14T10:20:30.114Z,17.93
2023-02-14T10:23:04.990Z,18.77
2023-02-14T10:25:42.223Z,19.60
2023-02-14T10:28:16.659Z,20.67
2023-02-14T10:30:54.897Z,19.83
2023-02-14T10:33:30.915Z,20.13
2023-02-14T10:36:05.814Z,20.00
2023-02-14T10:38:42.279Z,20.70
2023-02-14T10:41:27.840Z,20.90
2023-02-14T10:44:14.816Z,20.90
2023-02-14T10:46:50.248Z,21.73
2023-02-14T10:49:32.754Z,21.87
2023-02-14T10:52:09.874Z,20.17
2023-02-14T10:54:40.103Z,18.50
2023-02-14T10:57:15.820Z,20.27
2023-02-14T10:59:52.088Z,19.17
2023-02-14T11:02:29.532Z,18.43
2023-02-14T11:05:01.197Z,18.90
2023-02-14T11:07:31.057Z,21.33
2023-02-14T11:10:00.595Z,20.93
2023-02-14T11:12:38.307Z,20.80
2023-02-14T11:15:20.409Z,20.30
2023-02-14T11:17:49.721Z,20.60
2023-02-14T11:20:30.780Z,21.30
2023-02-14T11:22:59.197Z,21.03
2023-02-14T11:25:29.710Z,21.80
2023-02-14T11:28:01.749Z,22.63
2023-02-14T11:30:35.325Z,22.60
2023-02-14T11:33:04.794Z,22.37
2023-02-14T11:35:34.871Z,23.00
2023-02-14T11:38:05.491Z,22.00
2023-02-14T11:40:35.797Z,20.43
2023-02-14T11:43:21.232Z,22.43
2023-02-14T11:45:50.749Z,22.40
2023-02-14T11:48:36.757Z,22.80
2023-02-14T11:51:10.198Z,22.87
2023-02-14T11:53:45.912Z,24.80
2023-02-14T11:56:15.395Z,23.27
2023-02-14T11:58:50.234Z,22.47
2023-02-14T12:01:25.514Z,23.90
2023-02-14T12:03:55.989Z,24.43
2023-02-14T12:06:27.956Z,24.33
2023-02-14T12:09:14.291Z,24.50
2023-02-14T12:11:42.526Z,27.23
2023-02-14T12:14:23.217Z,22.17
2023-02-14T12:16:57.484Z,22.83
2023-02-14T12:19:33.523Z,22.67
2023-02-14T12:22:05.258Z,22.63
2023-02-14T12:24:37.525Z,27.53
2023-02-14T12:27:18.276Z,22.97
2023-02-14T12:29:50.623Z,19.03
2023-02-14T12:32:23.646Z,20.23
2023-02-14T12:34:54.444Z,19.67
2023-02-14T12:37:32.347Z,20.10
2023-02-14T12:40:12.270Z,19.93
2023-02-14T12:43:21.118Z,20.73
2023-02-14T12:46:12.821Z,21.23
2023-02-14T12:48:53.779Z,20.67
2023-02-14T12:51:29.294Z,21.50
2023-02-14T12:54:13.241Z,21.87
2023-02-14T12:56:51.653Z,22.23
2023-02-14T12:59:29.755Z,21.10
2023-02-14T13:02:17.927Z,21.43
2023-02-14T13:05:06.835Z,21.03
2023-02-14T13:08:08.209Z,21.80
2023-02-14T13:10:48.005Z,22.20
2023-02-14T13:13:24.971Z,23.20
2023-02-14T13:15:59.891Z,22.67
2023-02-14T13:18:40.644Z,23.23
2023-02-14T13:21:12.196Z,23.83
2023-02-14T13:23:42.937Z,24.07
2023-02-14T13:26:16.436Z,24.57
2023-02-14T13:28:50.622Z,32.20
2023-02-14T13:31:20.122Z,36.90
2023-02-14T13:33:53.036Z,143.07
2023-02-14T13:36:22.086Z,24.73
2023-02-14T13:41:29.431Z,29.17
2023-02-14T13:44:01.534Z,54.77
2023-02-14T13:46:51.794Z,42.03
2023-02-14T13:49:29.056Z,33.37
2023-02-14T13:51:59.337Z,26.10
2023-02-14T13:54:44.625Z,24.67
2023-02-14T13:57:31.476Z,25.40
2023-02-14T14:00:23.438Z,24.67
2023-02-14T14:02:52.227Z,23.87
2023-02-14T14:05:59.494Z,26.03
2023-02-14T14:08:46.114Z,23.93
2023-02-14T14:12:01.818Z,26.33
2023-02-14T14:14:36.583Z,26.20
2023-02-14T14:17:21.533Z,26.00
2023-02-14T14:19:50.659Z,27.13
2023-02-14T14:22:22.921Z,26.63
2023-02-14T14:25:00.284Z,26.80
2023-02-14T14:27:32.957Z,27.97
2023-02-14T14:30:04.141Z,27.10
2023-02-14T14:32:35.260Z,27.17
2023-02-14T14:35:08.252Z,27.50
2023-02-14T14:37:38.292Z,26.73
2023-02-14T14:40:09.596Z,27.27
2023-02-14T14:42:40.135Z,27.13
2023-02-14T14:45:22.627Z,28.17
2023-02-14T14:47:54.363Z,29.90
2023-02-14T14:50:24.892Z,28.87
2023-02-14T14:52:56.595Z,30.60
2023-02-14T14:55:27.587Z,34.60
2023-02-14T14:57:58.230Z,33.73
2023-02-14T15:00:30.152Z,30.10
2023-02-14T15:03:04.659Z,32.33
2023-02-14T15:05:35.956Z,67.10
2023-02-14T15:08:31.872Z,35.97
2023-02-14T15:11:03.260Z,33.77
2023-02-14T15:13:51.007Z,33.37
2023-02-14T15:16:23.367Z,31.37
2023-02-14T15:18:54.778Z,31.77
2023-02-14T15:21:25.206Z,36.80
2023-02-14T15:23:55.034Z,34.43
2023-02-14T15:26:29.504Z,32.40
2023-02-14T15:29:00.245Z,35.80
2023-02-14T15:31:42.463Z,37.33
2023-02-14T15:34:13.318Z,34.70
2023-02-14T15:36:54.311Z,33.90
2023-02-14T15:39:27.312Z,32.63
2023-02-14T15:41:56.706Z,32.87
2023-02-14T15:44:27.337Z,33.60
2023-02-14T15:47:00.243Z,34.63
2023-02-14T15:49:33.993Z,33.60
2023-02-14T15:52:04.356Z,34.83
2023-02-14T15:54:37.904Z,35.60
2023-02-14T15:57:08.828Z,35.17
2023-02-14T15:59:42.772Z,37.80
2023-02-14T16:02:24.645Z,37.13
2023-02-14T16:04:53.048Z,38.73
2023-02-14T16:07:25.232Z,39.13
2023-02-14T16:10:23.975Z,41.77
2023-02-14T16:13:01.351Z,39.90
2023-02-14T16:15:31.875Z,40.63
2023-02-14T16:18:06.926Z,41.10
2023-02-14T16:20:41.145Z,40.13
2023-02-14T16:23:24.597Z,36.63
2023-02-14T16:25:53.205Z,41.07
2023-02-14T16:28:21.711Z,40.87
2023-02-14T16:30:55.893Z,40.20
2023-02-14T16:33:28.225Z,37.80
2023-02-14T16:36:02.180Z,37.90
2023-02-14T16:38:30.550Z,38.50
2023-02-14T16:40:58.979Z,37.50
2023-02-14T16:43:27.506Z,40.57
2023-02-14T16:45:55.946Z,38.37
2023-02-14T16:48:25.503Z,39.87
2023-02-14T16:50:53.687Z,38.83
2023-02-14T16:53:26.850Z,46.00
2023-02-14T16:55:57.688Z,41.70
2023-02-14T16:58:33.032Z,38.93
2023-02-14T17:01:01.806Z,42.43
2023-02-14T17:03:31.620Z,39.50
2023-02-14T17:06:02.323Z,40.67
2023-02-14T17:08:30.929Z,37.67
2023-02-14T17:11:02.238Z,40.83
2023-02-14T17:13:33.657Z,39.73
2023-02-14T17:16:02.644Z,35.67
2023-02-14T17:18:33.634Z,39.30
2023-02-14T17:21:02.678Z,33.87
2023-02-14T17:23:31.171Z,32.87
2023-02-14T17:25:59.411Z,39.33
2023-02-14T17:28:27.757Z,38.63
2023-02-14T17:30:56.414Z,37.10
2023-02-14T17:33:26.036Z,37.87
2023-02-14T17:35:55.621Z,38.03
2023-02-14T17:38:24.065Z,40.83
2023-02-14T17:40:52.392Z,37.57
2023-02-14T17:43:20.534Z,41.33
2023-02-14T17:45:49.002Z,45.53
2023-02-14T17:48:17.338Z,43.97
2023-02-14T17:50:45.856Z,46.10
2023-02-14T17:53:15.364Z,43.20
2023-02-14T17:55:43.689Z,42.93
2023-02-14T17:58:11.850Z,37.60
2023-02-14T18:00:40.222Z,39.23
2023-02-14T18:03:08.488Z,36.00
2023-02-14T18:05:37.402Z,39.20
2023-02-14T18:08:06.168Z,40.03
2023-02-14T18:10:35.689Z,35.17
2023-02-14T18:13:04.307Z,35.10
2023-02-14T18:15:32.590Z,34.03
2023-02-14T18:18:00.958Z,32.67
2023-02-14T18:20:29.209Z,35.37
2023-02-14T18:22:57.476Z,34.47
2023-02-14T18:25:26.140Z,35.80
2023-02-14T18:27:57.331Z,34.03
2023-02-14T18:30:25.617Z,31.33
2023-02-14T18:32:55.387Z,30.93
2023-02-14T18:35:26.899Z,33.50
2023-02-14T18:37:56.127Z,33.03
2023-02-14T18:40:25.251Z,34.67
2023-02-14T18:42:53.995Z,36.53
2023-02-14T18:45:24.823Z,36.60
2023-02-14T18:47:53.705Z,37.43
2023-02-14T18:50:23.028Z,33.93
2023-02-14T18:52:51.859Z,36.80
2023-02-14T18:55:20.809Z,36.27
2023-02-14T18:57:50.104Z,36.60
2023-02-14T19:00:21.981Z,35.60
2023-02-14T19:02:53.407Z,44.33
2023-02-14T19:05:22.234Z,41.20
2023-02-14T19:07:55.781Z,41.73
2023-02-14T19:10:24.874Z,38.27
2023-02-14T19:12:53.601Z,38.80
2023-02-14T19:15:21.828Z,111.00
2023-02-14T19:17:50.082Z,50.40
2023-02-14T19:20:20.019Z,51.13
2023-02-14T19:22:48.445Z,95.80
2023-02-14T19:25:16.736Z,47.30
2023-02-14T19:27:45.125Z,45.77
2023-02-14T19:30:14.268Z,39.17
2023-02-14T19:32:43.448Z,55.23
2023-02-14T19:35:11.890Z,98.77
2023-02-14T19:37:41.511Z,37.97
2023-02-14T19:40:10.758Z,37.10
2023-02-14T19:42:38.942Z,35.77
2023-02-14T19:45:07.635Z,36.03
2023-02-14T19:47:46.625Z,34.00
2023-02-14T19:50:15.449Z,37.30
2023-02-14T19:52:45.050Z,41.23
2023-02-14T19:55:22.550Z,41.83
2023-02-14T19:57:50.828Z,38.47
2023-02-14T20:00:20.955Z,42.33
2023-02-14T20:02:49.354Z,39.27
2023-02-14T20:05:18.531Z,39.00
2023-02-14T20:07:51.969Z,38.67
2023-02-14T20:10:20.795Z,43.17
2023-02-14T20:12:49.548Z,39.70
2023-02-14T20:15:17.848Z,43.20
2023-02-14T20:17:47.170Z,42.23
2023-02-14T20:20:16.839Z,40.03
2023-02-14T20:22:45.522Z,39.00
2023-02-14T20:25:15.457Z,39.50
2023-02-14T20:27:44.035Z,40.47
2023-02-14T20:30:14.471Z,40.87
2023-02-14T20:32:43.013Z,39.47
2023-02-14T20:35:11.641Z,41.43
2023-02-14T20:37:39.996Z,47.70
2023-02-14T20:40:10.884Z,41.57
2023-02-14T20:42:41.124Z,41.57
2023-02-14T20:45:09.907Z,42.40
2023-02-14T20:47:38.160Z,42.27
2023-02-14T20:50:07.572Z,41.80
2023-02-14T20:52:37.738Z,43.83
2023-02-14T20:55:06.597Z,44.80
2023-02-14T20:57:34.811Z,45.47
2023-02-14T21:00:06.077Z,45.17
2023-02-14T21:02:34.335Z,36.87
2023-02-14T21:05:05.302Z,38.73
2023-02-14T21:07:33.837Z,37.60
2023-02-14T21:10:02.710Z,34.43
2023-02-14T21:12:31.373Z,35.10
2023-02-14T21:14:59.985Z,33.43
2023-02-14T21:17:29.736Z,33.50
2023-02-14T21:19:57.939Z,33.60
2023-02-14T21:22:26.393Z,38.57
2023-02-14T21:24:54.595Z,32.87
2023-02-14T21:27:22.881Z,39.57
2023-02-14T21:29:51.186Z,36.10
2023-02-14T21:32:19.948Z,40.10
2023-02-14T21:34:50.772Z,34.10
2023-02-14T21:37:19.668Z,33.30
2023-02-14T21:39:48.656Z,32.50
2023-02-14T21:42:18.995Z,32.77
2023-02-14T21:45:03.873Z,34.00
2023-02-14T21:47:32.221Z,36.07
2023-02-14T21:50:36.410Z,34.57
2023-02-14T21:53:07.424Z,34.33
2023-02-14T21:55:35.962Z,32.40
2023-02-14T21:58:04.342Z,33.50
2023-02-14T22:00:32.540Z,33.77
2023-02-14T22:03:00.749Z,29.77
2023-02-14T22:05:30.225Z,32.63
2023-02-14T22:07:58.421Z,32.13
2023-02-14T22:10:26.604Z,36.37
2023-02-14T22:12:54.738Z,31.10
2023-02-14T22:15:22.932Z,31.33
2023-02-14T22:17:51.151Z,32.23
2023-02-14T22:20:19.495Z,32.20
2023-02-14T22:22:49.005Z,31.63
2023-02-14T22:25:17.272Z,31.33
2023-02-14T22:27:45.430Z,34.33
2023-02-14T22:30:14.147Z,30.33
2023-02-14T22:32:42.847Z,30.30
2023-02-14T22:35:10.969Z,31.73
2023-02-14T22:37:39.201Z,31.40
2023-02-14T22:40:10.168Z,28.90
2023-02-14T22:42:38.596Z,29.07
2023-02-14T22:45:07.735Z,27.90
2023-02-14T22:47:36.181Z,30.17
2023-02-14T22:50:04.479Z,28.40
2023-02-14T22:52:32.683Z,29.33
2023-02-14T22:55:00.865Z,27.23
2023-02-14T22:57:32.394Z,27.87
2023-02-14T23:00:00.574Z,28.00
2023-02-14T23:02:28.811Z,27.27
2023-02-14T23:04:57.365Z,28.97
2023-02-14T23:07:25.524Z,29.43
2023-02-14T23:09:53.924Z,30.03
2023-02-14T23:12:39.804Z,32.73
2023-02-14T23:15:27.799Z,28.03
2023-02-14T23:18:12.982Z,28.53
2023-02-14T23:20:58.611Z,31.53
2023-02-14T23:23:30.381Z,30.53
2023-02-14T23:25:58.867Z,28.93
2023-02-14T23:28:27.865Z,30.17
2023-02-14T23:31:01.254Z,29.40
2023-02-14T23:33:29.456Z,42.43
2023-02-14T23:35:57.678Z,28.93
2023-02-14T23:38:25.893Z,29.57
2023-02-14T23:41:11.385Z,29.83
2023-02-14T23:43:39.654Z,27.70
2023-02-14T23:46:09.260Z,29.17
2023-02-14T23:48:37.608Z,27.53
2023-02-14T23:51:06.262Z,29.10
2023-02-14T23:53:34.501Z,27.93
2023-02-14T23:56:03.669Z,29.87
2023-02-14T23:58:32.238Z,28.77
